Time;durP1;ratioP1;P1;durP2;ratioP2;P2;SDS_P1;SDS_P2;PMS_P1;PMS_P2;Temp;Humidity;BMP_temperature;BMP_pressure;BME280_temperature;BME280_humidity;BME280_pressure;Samples;Min_cycle;Max_cycle;Signal;HPM_P1;HPM_P2
2022/01/30 00:01:23;;;;;;;29.47;3.17;;;6.40;99.90;;;;;;5039488;28;20179;-82
2022/01/30 00:03:49;;;;;;;28.73;3.87;;;6.30;99.90;;;;;;5040200;28;20188;-82
2022/01/30 00:06:14;;;;;;;28.37;3.40;;;6.30;99.90;;;;;;5039636;28;20309;-82
2022/01/30 00:08:40;;;;;;;32.20;3.57;;;6.30;99.90;;;;;;5041236;28;20180;-82
2022/01/30 00:11:13;;;;;;;35.30;3.53;;;6.30;99.90;;;;;;5040767;28;20193;-82
2022/01/30 00:13:39;;;;;;;29.10;3.03;;;6.30;99.90;;;;;;5041533;28;20173;-81
2022/01/30 00:16:08;;;;;;;24.33;3.53;;;6.30;99.90;;;;;;5048620;28;20649;-80
2022/01/30 00:18:49;;;;;;;24.30;3.50;;;6.30;99.90;;;;;;5049275;28;20177;-81
2022/01/30 00:23:53;;;;;;;33.37;4.13;;;6.10;99.90;;;;;;5066384;28;20178;-80
2022/01/30 00:26:20;;;;;;;25.40;3.60;;;6.30;99.90;;;;;;5048747;28;20207;-81
2022/01/30 00:28:46;;;;;;;19.93;3.33;;;6.20;99.90;;;;;;5044591;28;20189;-80
2022/01/30 00:31:19;;;;;;;30.30;3.73;;;6.20;99.90;;;;;;5043712;28;20189;-80
2022/01/30 00:33:45;;;;;;;25.00;3.23;;;6.10;99.90;;;;;;5044379;28;20169;-80
2022/01/30 00:36:10;;;;;;;30.43;3.87;;;6.20;99.90;;;;;;5045644;28;20742;-79
2022/01/30 00:38:36;;;;;;;18.30;3.03;;;6.10;99.90;;;;;;5045565;28;20193;-80
2022/01/30 00:41:03;;;;;;;25.73;3.40;;;6.10;99.90;;;;;;5046002;28;20268;-80
2022/01/30 00:43:28;;;;;;;22.30;3.50;;;6.20;99.90;;;;;;5044608;28;20185;-80
2022/01/30 00:45:54;;;;;;;23.13;2.77;;;6.20;99.90;;;;;;5060389;28;20199;-81
2022/01/30 00:48:20;;;;;;;17.17;2.83;;;6.10;99.90;;;;;;5041207;28;20187;-82
2022/01/30 00:50:46;;;;;;;21.17;3.03;;;6.10;99.90;;;;;;5039475;28;20175;-80
2022/01/30 00:53:12;;;;;;;23.43;2.87;;;6.10;99.90;;;;;;5041105;28;20194;-81
2022/01/30 00:55:38;;;;;;;22.63;3.23;;;6.10;99.90;;;;;;5041472;28;20258;-81
2022/01/30 00:58:04;;;;;;;22.40;3.13;;;6.00;99.90;;;;;;5040366;28;20182;-81
2022/01/30 01:00:31;;;;;;;21.13;3.03;;;6.00;99.90;;;;;;5040460;28;20545;-81
2022/01/30 01:02:56;;;;;;;23.20;3.20;;;6.00;99.90;;;;;;5042078;28;20646;-81
2022/01/30 01:05:22;;;;;;;28.67;3.00;;;6.00;99.90;;;;;;5041955;28;20231;-81
2022/01/30 01:07:50;;;;;;;19.73;3.40;;;6.00;99.90;;;;;;5041193;28;20203;-81
2022/01/30 01:10:29;;;;;;;24.17;2.70;;;5.90;99.90;;;;;;5042307;28;20715;-81
2022/01/30 01:25:55;;;;;;;23.13;3.03;;;5.90;99.90;;;;;;5058101;28;20196;-80
2022/01/30 01:28:20;;;;;;;12.17;2.60;;;5.90;99.90;;;;;;5040902;28;20191;-80
2022/01/30 01:30:46;;;;;;;23.63;2.90;;;5.80;99.90;;;;;;5041168;28;20174;-81
2022/01/30 01:33:13;;;;;;;20.27;3.07;;;5.70;99.90;;;;;;5038379;28;20187;-82
2022/01/30 01:35:39;;;;;;;14.13;2.40;;;5.80;99.90;;;;;;5039469;28;20211;-80
2022/01/30 01:38:10;;;;;;;24.57;2.90;;;5.90;99.90;;;;;;5040663;28;20183;-81
2022/01/30 01:40:36;;;;;;;16.53;2.73;;;6.00;99.90;;;;;;5059035;28;20637;-80
2022/01/30 01:43:03;;;;;;;13.20;2.37;;;6.00;99.90;;;;;;5037796;28;20178;-82
2022/01/30 01:45:34;;;;;;;19.93;3.17;;;6.00;99.90;;;;;;5037422;28;20199;-82
2022/01/30 01:48:03;;;;;;;22.43;3.23;;;6.00;99.90;;;;;;5037449;28;20241;-82
2022/01/30 01:50:43;;;;;;;23.47;3.40;;;5.90;99.90;;;;;;5038053;28;20226;-83
2022/01/30 01:53:13;;;;;;;13.83;2.63;;;6.00;99.90;;;;;;5037834;28;20167;-82
2022/01/30 01:55:40;;;;;;;14.47;2.20;;;6.10;99.90;;;;;;5036643;28;20678;-81
2022/01/30 01:58:05;;;;;;;16.83;2.33;;;6.10;99.90;;;;;;5039367;28;20176;-80
2022/01/30 02:00:32;;;;;;;17.10;3.10;;;6.10;99.90;;;;;;5038161;28;20173;-80
2022/01/30 02:02:58;;;;;;;23.33;2.40;;;6.10;99.90;;;;;;5037200;28;20265;-81
2022/01/30 02:05:28;;;;;;;24.20;2.50;;;6.10;99.90;;;;;;5039439;28;20694;-81
2022/01/30 02:11:08;;;;;;;20.00;2.80;;;6.00;99.90;;;;;;5058791;28;20184;-81
2022/01/30 02:13:55;;;;;;;5.90;1.70;;;5.90;99.90;;;;;;5047300;28;20177;-80
2022/01/30 02:27:39;;;;;;;15.20;2.27;;;5.80;99.90;;;;;;5029989;28;20175;-80
2022/01/30 02:30:15;;;;;;;10.43;1.97;;;5.70;99.90;;;;;;5035704;28;20179;-80
2022/01/30 02:32:42;;;;;;;17.33;2.83;;;5.80;99.90;;;;;;5035884;28;20175;-80
2022/01/30 02:35:08;;;;;;;18.23;2.53;;;5.70;99.90;;;;;;5035789;28;20217;-81
2022/01/30 02:37:34;;;;;;;14.47;2.13;;;5.70;99.90;;;;;;5038867;28;20167;-80
2022/01/30 02:40:04;;;;;;;17.00;2.63;;;5.60;99.90;;;;;;5056435;28;20200;-80
2022/01/30 02:42:32;;;;;;;14.60;2.17;;;5.60;99.90;;;;;;5039536;28;20177;-80
2022/01/30 02:45:02;;;;;;;12.10;2.20;;;5.60;99.90;;;;;;5038918;28;20268;-79
2022/01/30 02:50:12;;;;;;;11.10;1.90;;;5.50;99.90;;;;;;5056077;28;20173;-79
2022/01/30 02:52:41;;;;;;;13.67;2.07;;;5.50;99.90;;;;;;5036466;28;20258;-81
2022/01/30 02:55:09;;;;;;;11.40;2.10;;;5.50;99.90;;;;;;5034038;28;20693;-81
2022/01/30 02:57:35;;;;;;;11.87;2.40;;;5.50;99.90;;;;;;5034928;28;20216;-81
2022/01/30 03:00:00;;;;;;;20.50;2.57;;;5.50;99.90;;;;;;5038104;28;20600;-82
2022/01/30 03:02:26;;;;;;;14.57;2.30;;;5.40;99.90;;;;;;5037588;28;20187;-82
2022/01/30 03:04:52;;;;;;;10.83;1.80;;;5.40;99.90;;;;;;5038912;28;20259;-81
2022/01/30 03:07:17;;;;;;;18.63;3.07;;;5.50;99.90;;;;;;5039658;28;20211;-82
2022/01/30 03:09:43;;;;;;;14.67;2.07;;;5.40;99.90;;;;;;5040542;28;20645;-81
2022/01/30 03:12:09;;;;;;;15.83;2.23;;;5.40;99.90;;;;;;5040545;28;20655;-82
2022/01/30 03:14:35;;;;;;;17.20;2.17;;;5.40;99.90;;;;;;5041165;28;20659;-81
2022/01/30 03:17:00;;;;;;;16.37;2.20;;;5.30;99.90;;;;;;5042085;28;20250;-80
2022/01/30 03:19:26;;;;;;;13.17;2.17;;;5.30;99.90;;;;;;5041916;28;20197;-80
2022/01/30 03:21:52;;;;;;;15.37;2.20;;;5.30;99.90;;;;;;5041857;28;20173;-80
2022/01/30 03:24:17;;;;;;;16.83;2.40;;;5.30;99.90;;;;;;5045024;28;20275;-80
2022/01/30 03:26:43;;;;;;;17.87;2.30;;;5.20;99.90;;;;;;5041868;28;20190;-80
2022/01/30 03:29:10;;;;;;;20.20;2.63;;;5.30;99.90;;;;;;5042699;28;20172;-80
2022/01/30 03:31:39;;;;;;;15.57;2.27;;;5.30;99.90;;;;;;5041453;28;20172;-80
2022/01/30 03:34:07;;;;;;;17.90;1.97;;;5.20;99.90;;;;;;5042238;28;20175;-80
2022/01/30 03:36:34;;;;;;;20.17;2.77;;;5.20;99.90;;;;;;5031231;28;20210;-81
2022/01/30 03:38:59;;;;;;;20.20;2.27;;;5.10;99.90;;;;;;5022710;28;20176;-81
2022/01/30 03:41:26;;;;;;;7.20;2.37;;;5.10;99.90;;;;;;5023578;28;20227;-81
2022/01/30 03:43:52;;;;;;;13.63;2.77;;;5.10;99.90;;;;;;5023257;28;20247;-81
2022/01/30 03:46:19;;;;;;;14.40;2.23;;;5.10;99.90;;;;;;5036895;28;20254;-81
2022/01/30 03:48:46;;;;;;;13.83;2.30;;;5.10;99.90;;;;;;5061153;28;20179;-81
2022/01/30 03:51:11;;;;;;;17.57;3.43;;;5.10;99.90;;;;;;5045004;28;20198;-80
2022/01/30 03:53:37;;;;;;;14.37;2.47;;;5.00;99.90;;;;;;5043593;28;20169;-81
2022/01/30 03:56:04;;;;;;;12.93;1.80;;;5.00;99.90;;;;;;5045316;28;20215;-81
2022/01/30 03:58:30;;;;;;;9.43;2.00;;;4.90;99.90;;;;;;5044001;28;20205;-81
2022/01/30 04:00:55;;;;;;;18.20;2.30;;;5.00;99.90;;;;;;5042180;28;20179;-81
2022/01/30 04:03:21;;;;;;;16.83;2.13;;;5.00;99.90;;;;;;5041993;28;20181;-81
2022/01/30 04:05:48;;;;;;;14.47;2.33;;;5.00;99.90;;;;;;5041631;28;20583;-80
2022/01/30 04:08:14;;;;;;;24.23;2.30;;;4.90;99.90;;;;;;5041582;28;20527;-82
2022/01/30 04:10:41;;;;;;;20.50;2.53;;;4.90;99.90;;;;;;5041205;28;20191;-81
2022/01/30 04:13:06;;;;;;;11.97;2.03;;;4.90;99.90;;;;;;5041222;28;20612;-81
2022/01/30 04:15:32;;;;;;;19.27;2.23;;;5.00;99.90;;;;;;5057908;28;20253;-80
2022/01/30 04:17:59;;;;;;;16.77;2.10;;;5.10;99.90;;;;;;5039495;28;20185;-80
2022/01/30 04:20:25;;;;;;;14.57;2.40;;;5.10;99.90;;;;;;5039530;28;20186;-80
2022/01/30 04:22:51;;;;;;;20.07;2.53;;;5.10;99.90;;;;;;5039271;28;20176;-80
2022/01/30 04:25:17;;;;;;;13.47;2.30;;;5.10;99.90;;;;;;5039457;28;20545;-80
2022/01/30 04:27:42;;;;;;;13.67;2.20;;;5.10;99.90;;;;;;5039597;28;20178;-80
2022/01/30 04:30:10;;;;;;;12.27;2.47;;;5.30;99.90;;;;;;5039708;28;20184;-80
2022/01/30 04:32:41;;;;;;;13.97;2.17;;;5.40;99.90;;;;;;5039265;28;20180;-81
2022/01/30 04:35:16;;;;;;;15.37;3.03;;;5.40;99.90;;;;;;5039762;28;20621;-81
2022/01/30 04:38:01;;;;;;;20.63;3.03;;;5.40;99.90;;;;;;5039863;28;20173;-81
2022/01/30 05:05:24;;;;;;;20.50;3.80;;;5.40;99.90;;;;;;5059432;28;20168;-82
2022/01/30 05:07:50;;;;;;;14.77;2.57;;;5.40;99.90;;;;;;5023129;28;20189;-79
2022/01/30 05:10:15;;;;;;;20.90;3.30;;;5.20;99.90;;;;;;5021053;28;20257;-81
2022/01/30 05:12:50;;;;;;;18.73;2.47;;;5.10;99.90;;;;;;5019634;28;20199;-81
2022/01/30 05:15:20;;;;;;;28.83;3.57;;;5.10;99.90;;;;;;5020395;28;20193;-81
2022/01/30 05:17:47;;;;;;;25.57;3.33;;;5.00;99.90;;;;;;5020364;28;20171;-81
2022/01/30 05:20:13;;;;;;;17.60;2.77;;;5.00;99.90;;;;;;5019671;28;20232;-80
2022/01/30 05:22:39;;;;;;;24.53;3.23;;;4.90;99.90;;;;;;5017512;28;20173;-81
2022/01/30 05:25:06;;;;;;;17.87;2.50;;;4.90;99.90;;;;;;5017431;28;20172;-81
2022/01/30 05:27:32;;;;;;;24.20;2.97;;;4.90;99.90;;;;;;5017474;28;20179;-82
2022/01/30 05:29:58;;;;;;;14.97;3.10;;;4.90;99.90;;;;;;5017194;28;20188;-83
2022/01/30 05:32:23;;;;;;;28.73;2.70;;;4.90;99.90;;;;;;5017497;28;20239;-81
2022/01/30 05:34:49;;;;;;;23.10;2.77;;;4.80;99.90;;;;;;5017783;28;20255;-80
2022/01/30 05:37:19;;;;;;;14.57;2.73;;;4.90;99.90;;;;;;5017731;28;20196;-79
2022/01/30 05:39:46;;;;;;;33.73;4.47;;;4.90;99.90;;;;;;5018051;28;20210;-80
2022/01/30 05:42:12;;;;;;;23.60;3.27;;;4.80;99.90;;;;;;5017892;28;20630;-80
2022/01/30 05:45:10;;;;;;;19.23;3.47;;;4.90;99.90;;;;;;5018170;28;20201;-81
2022/01/30 05:47:32;;;;;;;19.70;2.47;;;4.90;99.90;;;;;;5034161;28;20202;-80
2022/01/30 05:49:58;;;;;;;21.23;2.93;;;4.80;99.90;;;;;;5017585;28;20793;-81
2022/01/30 05:52:24;;;;;;;20.10;2.47;;;4.80;99.90;;;;;;5017496;28;20189;-81
2022/01/30 05:54:50;;;;;;;20.73;2.87;;;4.80;99.90;;;;;;5017104;28;20217;-81
2022/01/30 05:57:16;;;;;;;19.53;2.83;;;4.80;99.90;;;;;;5016663;28;20195;-81
2022/01/30 05:59:41;;;;;;;25.40;3.13;;;4.90;99.90;;;;;;5016950;28;20187;-82
2022/01/30 06:02:07;;;;;;;27.87;3.40;;;4.90;99.90;;;;;;5016930;28;20175;-81
2022/01/30 06:04:33;;;;;;;29.03;3.37;;;5.00;99.90;;;;;;5016522;28;20548;-81
2022/01/30 06:07:00;;;;;;;28.07;2.77;;;5.10;99.90;;;;;;5017136;28;20209;-80
2022/01/30 06:09:26;;;;;;;23.63;2.93;;;5.10;99.90;;;;;;5017318;28;20638;-82
2022/01/30 06:11:52;;;;;;;20.57;3.40;;;5.20;99.90;;;;;;5016636;28;20235;-81
2022/01/30 06:14:19;;;;;;;21.40;3.10;;;5.20;99.90;;;;;;5016515;28;20597;-81
2022/01/30 06:16:45;;;;;;;23.93;2.60;;;5.30;99.90;;;;;;5015368;28;20764;-81
2022/01/30 06:19:10;;;;;;;30.87;4.03;;;5.30;99.90;;;;;;5017242;28;20285;-81
2022/01/30 06:21:36;;;;;;;28.90;3.83;;;5.30;99.90;;;;;;5017114;28;20189;-81
2022/01/30 06:24:02;;;;;;;30.80;3.70;;;5.30;99.90;;;;;;5017627;28;20172;-82
2022/01/30 06:26:28;;;;;;;22.63;4.10;;;5.30;99.90;;;;;;5016914;28;20195;-81
2022/01/30 06:28:54;;;;;;;15.53;3.23;;;5.10;99.90;;;;;;5017094;28;20588;-80
2022/01/30 06:31:20;;;;;;;30.60;4.60;;;5.00;99.90;;;;;;5016045;28;20268;-80
2022/01/30 06:33:45;;;;;;;24.13;3.60;;;4.90;99.90;;;;;;5017740;28;20174;-80
2022/01/30 06:36:11;;;;;;;25.27;4.40;;;4.90;99.90;;;;;;5020375;28;20216;-81
2022/01/30 06:38:37;;;;;;;34.67;4.67;;;4.90;99.90;;;;;;5020697;28;20183;-82
2022/01/30 06:41:03;;;;;;;32.47;4.07;;;4.80;99.90;;;;;;5020138;28;20260;-81
2022/01/30 06:43:28;;;;;;;33.57;3.83;;;4.80;99.90;;;;;;5020135;28;20176;-79
2022/01/30 06:45:55;;;;;;;25.63;3.70;;;4.80;99.90;;;;;;5019696;28;20749;-79
2022/01/30 06:48:22;;;;;;;24.00;3.43;;;4.80;99.90;;;;;;5019878;28;20548;-79
2022/01/30 06:50:48;;;;;;;22.30;3.37;;;4.80;99.90;;;;;;5019420;28;20235;-79
2022/01/30 06:53:13;;;;;;;27.17;4.17;;;4.80;99.90;;;;;;5019660;28;20179;-77
2022/01/30 06:55:42;;;;;;;24.40;4.20;;;4.70;99.90;;;;;;5019791;28;20213;-78
2022/01/30 06:58:13;;;;;;;38.37;5.07;;;4.70;99.90;;;;;;5020159;28;20264;-78
2022/01/30 07:00:38;;;;;;;23.37;2.80;;;4.80;99.90;;;;;;5019553;28;20185;-79
2022/01/30 07:03:04;;;;;;;29.67;4.50;;;4.70;99.90;;;;;;5016039;28;20272;-79
2022/01/30 07:05:30;;;;;;;27.63;3.57;;;4.70;99.90;;;;;;5006228;28;20203;-83
2022/01/30 07:07:56;;;;;;;40.93;3.70;;;4.60;99.90;;;;;;5001732;28;20654;-83
2022/01/30 07:10:22;;;;;;;27.30;3.63;;;4.60;99.90;;;;;;5021274;28;20191;-82
2022/01/30 07:12:48;;;;;;;34.60;4.37;;;4.60;99.90;;;;;;5039276;28;20178;-81
2022/01/30 07:15:14;;;;;;;33.30;3.77;;;4.50;99.90;;;;;;5020596;28;20187;-82
2022/01/30 07:17:41;;;;;;;29.90;4.00;;;4.60;99.90;;;;;;5018352;28;20178;-81
2022/01/30 07:20:07;;;;;;;41.10;4.53;;;4.70;99.90;;;;;;5025773;28;20209;-80
2022/01/30 07:22:33;;;;;;;29.83;3.73;;;4.80;99.90;;;;;;5038216;28;20309;-82
2022/01/30 07:24:58;;;;;;;28.47;4.53;;;4.80;99.90;;;;;;5017343;28;20204;-81
2022/01/30 07:27:24;;;;;;;19.80;2.80;;;4.90;99.90;;;;;;5003584;28;20706;-78
2022/01/30 07:29:51;;;;;;;29.10;3.60;;;4.90;99.90;;;;;;5009476;28;20326;-80
2022/01/30 07:32:16;;;;;;;24.33;3.40;;;4.80;99.90;;;;;;5022660;28;20180;-81
2022/01/30 07:34:49;;;;;;;21.30;3.73;;;4.80;99.90;;;;;;5023504;28;20178;-80
2022/01/30 07:37:15;;;;;;;27.77;3.40;;;4.70;99.90;;;;;;5020633;28;20216;-79
2022/01/30 07:39:41;;;;;;;31.17;3.50;;;4.80;99.90;;;;;;5016168;28;20176;-78
2022/01/30 07:42:07;;;;;;;24.90;3.43;;;4.80;99.90;;;;;;5012484;28;20188;-79
2022/01/30 07:44:33;;;;;;;28.30;4.00;;;4.80;99.90;;;;;;5021724;28;20169;-78
2022/01/30 07:46:58;;;;;;;39.17;4.37;;;4.80;99.90;;;;;;5024835;28;20267;-79
2022/01/30 07:49:24;;;;;;;33.07;4.20;;;4.90;99.90;;;;;;5017659;28;20173;-79
2022/01/30 07:51:50;;;;;;;38.10;4.73;;;4.90;99.90;;;;;;5022584;28;20179;-79
2022/01/30 07:54:15;;;;;;;27.70;3.80;;;4.90;99.90;;;;;;5013150;28;20176;-80
2022/01/30 07:56:41;;;;;;;32.43;4.00;;;4.90;99.90;;;;;;5010564;28;20205;-80
2022/01/30 07:59:07;;;;;;;34.57;4.60;;;4.90;99.90;;;;;;5020023;28;20166;-81
2022/01/30 08:01:32;;;;;;;31.03;4.07;;;4.90;99.90;;;;;;5034756;28;20182;-81
2022/01/30 08:04:00;;;;;;;31.40;4.10;;;5.00;99.90;;;;;;5019950;28;20652;-80
2022/01/30 08:06:26;;;;;;;30.20;3.97;;;5.00;99.90;;;;;;5017847;28;20829;-79
2022/01/30 08:08:52;;;;;;;37.83;4.90;;;4.90;99.90;;;;;;5017556;28;20184;-79
2022/01/30 08:11:18;;;;;;;26.63;3.40;;;5.10;99.90;;;;;;5003789;28;20230;-79
2022/01/30 08:13:44;;;;;;;31.90;4.87;;;5.10;99.90;;;;;;5022634;28;20184;-80
2022/01/30 08:16:09;;;;;;;36.57;4.77;;;5.20;99.90;;;;;;5008426;28;20236;-79
2022/01/30 08:18:37;;;;;;;36.73;4.87;;;5.30;99.90;;;;;;5009991;28;20208;-79
2022/01/30 08:21:04;;;;;;;41.53;4.03;;;5.50;99.90;;;;;;5019940;28;20181;-80
2022/01/30 08:23:32;;;;;;;35.00;4.77;;;5.70;99.90;;;;;;5013763;28;20174;-80
2022/01/30 08:25:58;;;;;;;28.23;4.80;;;5.80;99.90;;;;;;5021171;28;20198;-78
2022/01/30 08:28:23;;;;;;;32.70;4.93;;;5.60;99.90;;;;;;5017282;28;20182;-79
2022/01/30 08:30:51;;;;;;;33.50;4.80;;;5.50;99.90;;;;;;5017642;28;20185;-79
2022/01/30 08:33:16;;;;;;;25.87;4.70;;;5.40;99.90;;;;;;5020455;28;20243;-79
2022/01/30 08:35:43;;;;;;;31.73;4.53;;;5.50;99.90;;;;;;5019169;28;20214;-80
2022/01/30 08:38:10;;;;;;;43.13;4.20;;;5.70;99.90;;;;;;5017863;28;20211;-80
2022/01/30 08:40:36;;;;;;;38.50;4.07;;;5.90;99.90;;;;;;5018208;28;20269;-80
2022/01/30 08:43:02;;;;;;;31.63;4.40;;;5.90;99.90;;;;;;5022582;28;20199;-79
2022/01/30 08:45:28;;;;;;;32.37;4.57;;;5.90;99.90;;;;;;5020575;28;20297;-80
2022/01/30 08:47:54;;;;;;;36.47;5.13;;;5.90;99.90;;;;;;5021665;28;20213;-80
2022/01/30 08:50:21;;;;;;;39.17;5.53;;;6.10;99.90;;;;;;5038424;28;20227;-81
2022/01/30 08:52:47;;;;;;;32.27;4.10;;;6.20;99.90;;;;;;5016444;28;20174;-81
2022/01/30 08:55:16;;;;;;;40.83;4.67;;;6.40;99.90;;;;;;5016240;28;20245;-81
2022/01/30 08:57:42;;;;;;;39.00;5.90;;;6.60;99.90;;;;;;5019339;28;20535;-81
2022/01/30 09:00:14;;;;;;;29.50;4.07;;;6.60;99.90;;;;;;5018941;28;20196;-81
2022/01/30 09:02:40;;;;;;;29.70;4.27;;;6.60;99.90;;;;;;5016860;28;20171;-79
2022/01/30 09:05:08;;;;;;;36.53;5.03;;;6.40;99.90;;;;;;4997749;28;20177;-80
2022/01/30 09:07:34;;;;;;;40.03;4.53;;;6.50;99.90;;;;;;5016903;28;20227;-81
2022/01/30 09:10:00;;;;;;;33.67;4.43;;;6.50;99.90;;;;;;5016583;28;20171;-82
2022/01/30 09:12:26;;;;;;;35.03;4.30;;;6.50;99.90;;;;;;5017634;28;20201;-83
2022/01/30 09:14:52;;;;;;;37.10;5.53;;;6.40;99.90;;;;;;5015101;28;20315;-81
2022/01/30 09:17:19;;;;;;;38.47;5.40;;;6.50;99.90;;;;;;5016487;28;20228;-80
2022/01/30 09:19:46;;;;;;;52.27;6.00;;;6.40;99.90;;;;;;5016460;28;20206;-81
2022/01/30 09:22:15;;;;;;;37.93;5.20;;;6.50;99.90;;;;;;5017608;28;20564;-80
2022/01/30 09:24:42;;;;;;;35.80;4.17;;;6.40;99.90;;;;;;5016554;28;20180;-80
2022/01/30 09:27:08;;;;;;;33.10;4.57;;;6.30;99.90;;;;;;5015971;28;20554;-81
2022/01/30 09:29:35;;;;;;;25.50;3.93;;;6.40;99.90;;;;;;5016693;28;20175;-80
2022/01/30 09:32:01;;;;;;;36.93;4.40;;;6.30;99.90;;;;;;5016934;28;20184;-80
2022/01/30 09:34:27;;;;;;;36.60;4.63;;;6.30;99.90;;;;;;5016678;28;20644;-82
2022/01/30 09:36:53;;;;;;;36.50;4.80;;;6.40;99.90;;;;;;5016297;28;20217;-81
2022/01/30 09:39:19;;;;;;;39.97;4.93;;;6.40;99.90;;;;;;5017673;28;20197;-82
2022/01/30 09:41:48;;;;;;;38.60;5.53;;;6.50;99.90;;;;;;5017020;28;20187;-79
2022/01/30 09:44:15;;;;;;;30.90;4.60;;;6.60;99.90;;;;;;5016657;28;20171;-79
2022/01/30 09:46:42;;;;;;;42.57;4.87;;;6.60;99.90;;;;;;5020452;28;20250;-80
2022/01/30 09:49:10;;;;;;;28.43;4.13;;;6.50;99.90;;;;;;5017960;28;20685;-80
2022/01/30 09:51:43;;;;;;;27.23;4.20;;;6.40;99.90;;;;;;5017727;28;20697;-79
2022/01/30 09:54:09;;;;;;;31.13;4.30;;;7.00;99.90;;;;;;5017161;28;20724;-79
2022/01/30 09:56:35;;;;;;;33.20;4.60;;;7.40;99.90;;;;;;5018209;28;20209;-79
2022/01/30 09:59:02;;;;;;;31.17;4.67;;;7.80;99.90;;;;;;5016240;28;20190;-81
2022/01/30 10:01:33;;;;;;;35.07;5.73;;;8.00;99.90;;;;;;5016534;28;20182;-81
2022/01/30 10:04:00;;;;;;;39.40;4.87;;;8.20;99.90;;;;;;5018520;28;20680;-82
2022/01/30 10:06:32;;;;;;;34.07;4.97;;;8.30;99.90;;;;;;5018827;28;20253;-81
2022/01/30 10:09:05;;;;;;;33.07;5.17;;;8.00;99.90;;;;;;5018772;28;20171;-81
2022/01/30 10:11:47;;;;;;;33.30;4.67;;;8.40;99.90;;;;;;5017759;28;20175;-80
2022/01/30 10:14:14;;;;;;;30.60;4.50;;;8.40;99.90;;;;;;5018174;28;20223;-80
2022/01/30 10:16:49;;;;;;;39.37;5.10;;;8.60;99.90;;;;;;5018175;28;20249;-79
2022/01/30 10:19:24;;;;;;;40.97;5.20;;;8.60;99.90;;;;;;5025245;28;20173;-79
2022/01/30 10:22:08;;;;;;;41.67;5.67;;;8.70;99.90;;;;;;5023644;28;20168;-82
2022/01/30 10:24:38;;;;;;;32.20;5.33;;;8.60;99.90;;;;;;5023334;28;20170;-79
2022/01/30 10:27:22;;;;;;;46.30;5.30;;;8.50;99.90;;;;;;5022960;28;20285;-81
2022/01/30 10:30:04;;;;;;;42.43;5.50;;;9.10;99.90;;;;;;5027274;28;20173;-79
2022/01/30 10:32:31;;;;;;;34.23;4.50;;;9.00;99.90;;;;;;5024223;28;20220;-82
2022/01/30 10:35:02;;;;;;;39.13;4.87;;;9.20;99.90;;;;;;5019782;28;20183;-79
2022/01/30 10:37:28;;;;;;;45.03;5.70;;;9.00;99.90;;;;;;5021906;28;20278;-80
2022/01/30 10:40:11;;;;;;;39.13;5.77;;;8.90;99.90;;;;;;5019780;28;20208;-83
2022/01/30 10:42:38;;;;;;;29.53;5.00;;;8.80;99.90;;;;;;5001323;28;20174;-82
2022/01/30 10:45:06;;;;;;;40.97;6.40;;;8.60;99.90;;;;;;4998433;28;20218;-82
2022/01/30 10:47:32;;;;;;;32.33;4.60;;;8.80;99.90;;;;;;4997831;28;20182;-80
2022/01/30 10:49:59;;;;;;;39.20;4.87;;;8.60;99.90;;;;;;4997958;28;20188;-83
2022/01/30 10:52:25;;;;;;;38.47;5.03;;;8.70;99.90;;;;;;4997812;28;20209;-82
2022/01/30 10:54:51;;;;;;;41.23;6.00;;;8.70;99.90;;;;;;4997034;28;20568;-82
2022/01/30 10:57:17;;;;;;;32.77;4.73;;;8.20;99.90;;;;;;4998737;28;20191;-82
2022/01/30 10:59:45;;;;;;;45.03;6.07;;;8.30;99.90;;;;;;5025532;23;20217;-82
2022/01/30 11:02:14;;;;;;;30.27;4.57;;;8.00;99.90;;;;;;5016916;28;20172;-82
2022/01/30 11:04:40;;;;;;;31.83;5.20;;;8.20;99.90;;;;;;5035127;28;20293;-82
2022/01/30 11:07:05;;;;;;;37.10;5.50;;;8.30;99.90;;;;;;5035074;28;20217;-82
2022/01/30 11:09:45;;;;;;;31.20;5.17;;;8.70;99.90;;;;;;5034951;28;20172;-81
2022/01/30 11:12:15;;;;;;;36.20;4.97;;;8.60;99.90;;;;;;5014978;28;20664;-81
2022/01/30 11:17:22;;;;;;;42.87;5.77;;;8.40;99.90;;;;;;5017957;28;20782;-82
2022/01/30 11:19:52;;;;;;;30.63;5.30;;;8.60;99.90;;;;;;5002252;28;20161;-83
2022/01/30 11:22:22;;;;;;;30.27;5.27;;;8.40;99.90;;;;;;5004001;28;20210;-83
2022/01/30 11:25:00;;;;;;;39.87;4.90;;;8.20;99.90;;;;;;5006169;28;20194;-82
2022/01/30 11:27:26;;;;;;;44.00;4.93;;;8.40;99.90;;;;;;5004967;28;20226;-82
2022/01/30 11:29:52;;;;;;;28.03;4.80;;;8.60;99.90;;;;;;5004744;28;20169;-81
2022/01/30 11:32:20;;;;;;;51.90;5.17;;;8.70;99.90;;;;;;5004525;28;20174;-82
2022/01/30 11:34:45;;;;;;;35.03;4.90;;;8.70;99.90;;;;;;5001974;28;20172;-82
2022/01/30 11:37:24;;;;;;;30.27;4.70;;;8.40;99.90;;;;;;4997908;28;20282;-82
2022/01/30 11:39:52;;;;;;;34.10;4.13;;;8.80;99.90;;;;;;4998083;28;20178;-83
2022/01/30 11:42:25;;;;;;;35.10;5.50;;;8.80;99.90;;;;;;4998626;28;20252;-84
2022/01/30 11:44:59;;;;;;;36.37;4.37;;;8.50;99.90;;;;;;4999740;28;20205;-84
2022/01/30 11:47:25;;;;;;;31.50;4.40;;;8.80;99.90;;;;;;5016599;28;20217;-83
2022/01/30 11:50:05;;;;;;;31.17;4.30;;;8.90;99.90;;;;;;5000161;28;20257;-83
2022/01/30 11:52:53;;;;;;;30.50;4.93;;;9.20;99.90;;;;;;5002853;28;20173;-86
2022/01/30 11:55:49;;;;;;;28.50;4.57;;;9.20;99.90;;;;;;5001419;28;20678;-81
2022/01/30 11:58:30;;;;;;;30.63;4.90;;;9.10;99.90;;;;;;5017749;28;20214;-84
2022/01/30 12:01:12;;;;;;;30.30;5.33;;;8.90;99.90;;;;;;5017203;28;20180;-84
2022/01/30 12:03:37;;;;;;;30.83;4.43;;;9.10;99.90;;;;;;5000080;28;20163;-83
2022/01/30 12:06:21;;;;;;;30.30;5.03;;;8.80;99.90;;;;;;5001003;28;20194;-84
2022/01/30 12:08:59;;;;;;;27.50;5.17;;;8.70;99.90;;;;;;5018005;28;20201;-84
2022/01/30 12:11:37;;;;;;;33.23;4.83;;;8.60;99.90;;;;;;5001525;28;20181;-84
2022/01/30 12:14:10;;;;;;;25.47;4.13;;;8.80;99.90;;;;;;5015428;28;20187;-84
2022/01/30 12:16:45;;;;;;;27.93;5.10;;;8.70;99.90;;;;;;5016225;28;20736;-82
2022/01/30 12:19:12;;;;;;;38.60;4.60;;;8.60;99.90;;;;;;5016674;28;20174;-82
2022/01/30 12:21:38;;;;;;;31.80;4.43;;;8.80;99.90;;;;;;5002996;28;20175;-82
2022/01/30 12:24:24;;;;;;;33.53;4.33;;;8.60;99.90;;;;;;5001354;28;20190;-82
2022/01/30 12:26:50;;;;;;;34.97;4.70;;;8.50;99.90;;;;;;5000107;28;20200;-83
2022/01/30 12:29:38;;;;;;;32.03;5.47;;;8.50;99.90;;;;;;5002980;28;20192;-85
2022/01/30 12:32:22;;;;;;;38.70;5.20;;;8.60;99.90;;;;;;5019176;28;20258;-83
2022/01/30 12:35:00;;;;;;;39.47;4.83;;;8.50;99.90;;;;;;5016527;28;20538;-83
2022/01/30 12:37:26;;;;;;;49.20;6.40;;;8.50;99.90;;;;;;5016137;28;20217;-83
2022/01/30 12:39:53;;;;;;;37.37;4.77;;;8.40;99.90;;;;;;5000614;28;20172;-81
2022/01/30 12:42:20;;;;;;;30.13;4.57;;;8.20;99.90;;;;;;5000762;28;20182;-83
2022/01/30 12:44:48;;;;;;;37.63;4.97;;;8.30;99.90;;;;;;4999870;28;20178;-84
2022/01/30 12:47:14;;;;;;;27.17;4.03;;;8.00;99.90;;;;;;5001209;28;20194;-84
2022/01/30 12:49:47;;;;;;;28.30;4.63;;;8.10;99.90;;;;;;4999727;28;20173;-84
2022/01/30 12:52:34;;;;;;;34.53;5.10;;;8.00;99.90;;;;;;5000176;28;20175;-84
2022/01/30 12:55:06;;;;;;;31.07;4.67;;;8.10;99.90;;;;;;5001524;28;20190;-83
2022/01/30 12:57:33;;;;;;;44.17;5.70;;;8.10;99.90;;;;;;5003382;28;20191;-82
2022/01/30 12:59:59;;;;;;;32.07;5.33;;;8.00;99.90;;;;;;5002358;28;20180;-82
2022/01/30 13:02:33;;;;;;;34.10;4.97;;;8.20;99.90;;;;;;5001435;28;20181;-84
2022/01/30 13:05:04;;;;;;;32.10;4.60;;;8.20;99.90;;;;;;5001442;28;20185;-84
2022/01/30 13:07:30;;;;;;;32.97;4.60;;;8.00;99.90;;;;;;5002252;28;20226;-84
2022/01/30 13:10:06;;;;;;;41.20;5.17;;;8.10;99.90;;;;;;5001971;28;20214;-84
2022/01/30 13:12:32;;;;;;;39.43;4.77;;;8.00;99.90;;;;;;5002103;28;20170;-84
2022/01/30 13:14:58;;;;;;;34.97;5.30;;;7.80;99.90;;;;;;5001693;28;20237;-83
2022/01/30 13:17:29;;;;;;;29.77;5.17;;;7.90;99.90;;;;;;5001436;28;20297;-82
2022/01/30 13:19:55;;;;;;;29.70;5.40;;;7.80;99.90;;;;;;5001275;28;20183;-83
2022/01/30 13:22:36;;;;;;;43.10;5.20;;;7.70;99.90;;;;;;5000077;28;20207;-84
2022/01/30 13:25:16;;;;;;;44.33;5.40;;;7.70;99.90;;;;;;5003702;28;20649;-84
2022/01/30 13:27:47;;;;;;;40.23;4.90;;;7.70;99.90;;;;;;5002453;28;20168;-85
2022/01/30 13:30:24;;;;;;;49.60;5.40;;;7.60;99.90;;;;;;5003913;28;20243;-84
2022/01/30 13:32:52;;;;;;;38.17;4.83;;;7.60;99.90;;;;;;5003944;28;20190;-84
2022/01/30 13:35:20;;;;;;;49.10;4.97;;;7.60;99.90;;;;;;5002900;28;20238;-84
2022/01/30 13:37:46;;;;;;;39.13;5.57;;;7.60;99.90;;;;;;5003686;28;20645;-84
2022/01/30 13:40:24;;;;;;;40.63;5.00;;;7.60;99.90;;;;;;5002212;28;20161;-85
2022/01/30 13:42:56;;;;;;;37.27;5.33;;;7.70;99.90;;;;;;5001678;28;20165;-83
2022/01/30 13:48:01;;;;;;;38.30;5.17;;;7.60;99.90;;;;;;5014482;28;20228;-83
2022/01/30 13:50:31;;;;;;;32.03;4.93;;;7.70;99.90;;;;;;4996279;28;20182;-83
2022/01/30 13:53:17;;;;;;;35.87;4.57;;;7.80;99.90;;;;;;4996735;28;20174;-84
2022/01/30 13:55:52;;;;;;;39.73;4.43;;;7.80;99.90;;;;;;5013586;28;20345;-84
2022/01/30 13:58:20;;;;;;;31.40;4.70;;;7.90;99.90;;;;;;5013106;28;20212;-83